Time;durP1;ratioP1;P1;durP2;ratioP2;P2;SDS_P1;SDS_P2;PMS_P1;PMS_P2;Temp;Humidity;BMP_temperature;BMP_pressure;BME280_temperature;BME280_humidity;BME280_pressure;Samples;Min_cycle;Max_cycle;Signal;HPM_P1;HPM_P2
2022/09/19 00:01:14;;;;;;;14.38;13.05;;;14.30;99.90;;;;;;5010713;28;20049;-83
2022/09/19 00:03:44;;;;;;;14.85;13.55;;;14.30;99.90;;;;;;5008187;28;20041;-85
2022/09/19 00:06:13;;;;;;;14.43;13.02;;;14.30;99.90;;;;;;5030155;28;20022;-84
2022/09/19 00:08:40;;;;;;;16.25;14.68;;;14.30;99.90;;;;;;5012737;28;20121;-86
2022/09/19 00:11:07;;;;;;;16.98;15.32;;;14.30;99.90;;;;;;5012258;28;20022;-84
2022/09/19 00:13:35;;;;;;;17.63;14.98;;;14.30;99.90;;;;;;4992283;28;20479;-84
2022/09/19 00:16:01;;;;;;;17.58;15.90;;;14.30;99.90;;;;;;4996134;28;20029;-84
2022/09/19 00:18:27;;;;;;;17.77;15.98;;;14.30;99.90;;;;;;5017349;28;20039;-85
2022/09/19 00:20:53;;;;;;;19.10;17.02;;;14.30;99.90;;;;;;5019042;28;20066;-84
2022/09/19 00:26:09;;;;;;;17.38;15.63;;;14.30;99.90;;;;;;5015503;28;20096;-85
2022/09/19 00:28:36;;;;;;;16.63;14.93;;;14.30;99.90;;;;;;5021520;28;20068;-83
2022/09/19 00:31:02;;;;;;;16.45;14.70;;;14.40;99.90;;;;;;5000336;28;20037;-84
2022/09/19 00:33:31;;;;;;;17.15;15.45;;;14.30;99.90;;;;;;5015227;28;20100;-84
2022/09/19 00:35:59;;;;;;;16.90;15.30;;;14.40;99.90;;;;;;5006030;28;20017;-85
2022/09/19 00:38:26;;;;;;;17.02;15.05;;;14.40;99.90;;;;;;4995379;28;20399;-84
2022/09/19 00:40:52;;;;;;;16.52;14.95;;;14.40;99.90;;;;;;5013579;28;20022;-83
2022/09/19 00:43:25;;;;;;;18.17;16.38;;;14.40;99.90;;;;;;4996363;28;20038;-84
2022/09/19 00:45:52;;;;;;;21.17;14.27;;;14.40;99.90;;;;;;5015607;28;20467;-85
2022/09/19 00:48:22;;;;;;;17.48;15.00;;;14.40;99.90;;;;;;5001549;28;20501;-83
2022/09/19 00:50:52;;;;;;;16.35;14.05;;;14.40;99.90;;;;;;5017290;28;20022;-84
2022/09/19 00:53:22;;;;;;;15.38;13.88;;;14.40;99.90;;;;;;5017835;28;20479;-83
2022/09/19 00:55:54;;;;;;;13.77;12.38;;;14.40;99.90;;;;;;5017096;28;20056;-83
2022/09/19 00:58:23;;;;;;;14.02;12.63;;;14.40;99.90;;;;;;5015502;28;20049;-82
2022/09/19 01:00:50;;;;;;;14.52;11.25;;;14.50;99.90;;;;;;4997972;28;20073;-84
2022/09/19 01:03:15;;;;;;;14.98;12.40;;;14.50;99.90;;;;;;5015465;28;20033;-83
2022/09/19 01:06:00;;;;;;;15.48;12.23;;;14.50;99.90;;;;;;5014728;28;20383;-83
2022/09/19 01:08:53;;;;;;;13.13;11.77;;;14.50;99.90;;;;;;5017141;28;20037;-83
2022/09/19 01:11:22;;;;;;;12.93;11.60;;;14.50;99.90;;;;;;5015859;28;20052;-83
2022/09/19 01:14:02;;;;;;;13.00;11.70;;;14.50;99.90;;;;;;5005348;28;20028;-83
2022/09/19 01:16:50;;;;;;;13.90;11.60;;;14.50;99.90;;;;;;5015459;28;20022;-82
2022/09/19 01:19:39;;;;;;;13.70;11.48;;;14.50;99.90;;;;;;5009964;28;20115;-82
2022/09/19 01:22:30;;;;;;;11.75;10.55;;;14.50;99.90;;;;;;5004067;28;20034;-82
2022/09/19 01:24:59;;;;;;;12.68;11.45;;;14.50;99.90;;;;;;5004575;28;20101;-82
2022/09/19 01:27:43;;;;;;;12.63;11.43;;;14.50;99.90;;;;;;5019882;28;20034;-82
2022/09/19 01:30:12;;;;;;;12.30;11.10;;;14.50;99.90;;;;;;4997874;28;20041;-83
2022/09/19 01:32:59;;;;;;;12.32;11.13;;;14.50;99.90;;;;;;5015550;28;20357;-82
2022/09/19 01:35:28;;;;;;;12.70;11.38;;;14.50;99.90;;;;;;5015101;28;20057;-84
2022/09/19 01:38:05;;;;;;;12.07;10.73;;;14.50;99.90;;;;;;4997372;28;20518;-82
2022/09/19 01:40:32;;;;;;;12.85;11.65;;;14.50;99.90;;;;;;5016618;28;20036;-83
2022/09/19 01:42:58;;;;;;;12.25;11.13;;;14.50;99.90;;;;;;5001245;28;20026;-83
2022/09/19 01:45:30;;;;;;;12.68;11.38;;;14.50;99.90;;;;;;4997205;28;20037;-83
2022/09/19 01:48:14;;;;;;;13.30;12.00;;;14.50;99.90;;;;;;5015268;28;20030;-82
2022/09/19 01:50:58;;;;;;;12.15;10.95;;;14.60;99.90;;;;;;5007217;28;20054;-83
2022/09/19 01:54:13;;;;;;;12.48;11.23;;;14.60;99.90;;;;;;5018775;28;20057;-82
2022/09/19 01:56:47;;;;;;;13.35;11.02;;;14.60;99.90;;;;;;4959398;28;20024;-81
2022/09/19 01:59:26;;;;;;;11.88;10.68;;;14.60;99.90;;;;;;4973780;28;20047;-81
2022/09/19 02:01:58;;;;;;;13.80;12.55;;;14.60;99.90;;;;;;4964432;28;20102;-82
2022/09/19 02:04:58;;;;;;;14.38;11.18;;;14.70;99.90;;;;;;4954450;28;20071;-82
2022/09/19 02:07:47;;;;;;;13.65;11.65;;;14.80;99.90;;;;;;4968376;28;20031;-82
2022/09/19 02:10:16;;;;;;;13.85;12.55;;;14.80;99.90;;;;;;4945117;28;20035;-83
2022/09/19 02:12:43;;;;;;;16.10;12.43;;;14.80;99.90;;;;;;4957707;28;20031;-82
2022/09/19 02:15:14;;;;;;;14.27;11.30;;;14.80;99.90;;;;;;4954594;29;20035;-81
2022/09/19 02:17:48;;;;;;;13.93;11.63;;;14.80;99.90;;;;;;4956629;28;20031;-83
2022/09/19 02:20:28;;;;;;;13.05;11.70;;;14.90;99.90;;;;;;4949642;28;20050;-82
2022/09/19 02:23:04;;;;;;;12.32;11.02;;;14.90;99.90;;;;;;4944915;29;20020;-82
2022/09/19 02:25:34;;;;;;;14.07;12.63;;;14.90;99.90;;;;;;4962748;28;20031;-83
2022/09/19 02:28:13;;;;;;;15.35;13.48;;;14.90;99.90;;;;;;4972764;28;20031;-83
2022/09/19 02:30:41;;;;;;;16.13;13.02;;;14.90;99.90;;;;;;4989493;28;20034;-84
2022/09/19 02:33:08;;;;;;;17.13;14.40;;;14.90;99.90;;;;;;5014552;28;20452;-83
2022/09/19 02:35:47;;;;;;;16.52;14.45;;;14.90;99.90;;;;;;4997070;28;20025;-84
2022/09/19 02:38:16;;;;;;;17.02;15.25;;;14.90;99.90;;;;;;5016649;28;20029;-83
2022/09/19 02:40:45;;;;;;;17.48;15.43;;;15.00;99.90;;;;;;5006688;28;20014;-84
2022/09/19 02:43:36;;;;;;;18.85;15.38;;;14.90;99.90;;;;;;5001975;28;20026;-84
2022/09/19 02:46:47;;;;;;;19.60;15.70;;;14.90;99.90;;;;;;5015854;28;20030;-84
2022/09/19 02:49:50;;;;;;;17.77;15.98;;;14.80;99.90;;;;;;4953904;28;20043;-82
2022/09/19 02:52:22;;;;;;;17.10;15.45;;;14.70;99.90;;;;;;5007067;28;20064;-85
2022/09/19 02:54:56;;;;;;;17.98;14.88;;;14.60;99.90;;;;;;5015681;28;20014;-83
2022/09/19 02:57:25;;;;;;;17.27;15.40;;;14.50;99.90;;;;;;4996048;28;20025;-83
2022/09/19 02:59:58;;;;;;;17.13;14.95;;;14.40;99.90;;;;;;4996186;28;20072;-83
2022/09/19 03:02:34;;;;;;;17.45;15.65;;;14.40;99.90;;;;;;5012747;28;20033;-84
2022/09/19 03:05:19;;;;;;;19.13;14.30;;;14.30;99.90;;;;;;5014893;28;20022;-82
2022/09/19 03:08:05;;;;;;;20.23;15.00;;;14.20;99.90;;;;;;5013008;28;20030;-82
2022/09/19 03:10:48;;;;;;;16.77;14.98;;;14.20;99.90;;;;;;5013211;28;20316;-82
2022/09/19 03:13:15;;;;;;;16.85;14.50;;;14.20;99.90;;;;;;4989577;28;20026;-83
2022/09/19 03:16:19;;;;;;;16.45;14.57;;;14.10;99.90;;;;;;4989883;28;20025;-84
2022/09/19 03:18:46;;;;;;;18.80;13.55;;;14.10;99.90;;;;;;4987286;28;20121;-82
2022/09/19 03:21:18;;;;;;;19.50;15.05;;;14.00;99.90;;;;;;4995473;28;20076;-82
2022/09/19 03:23:50;;;;;;;20.70;14.52;;;14.00;99.90;;;;;;5012979;28;20029;-82
2022/09/19 03:26:22;;;;;;;18.10;16.10;;;14.00;99.90;;;;;;5015056;28;20078;-81
2022/09/19 03:28:48;;;;;;;16.00;14.30;;;14.10;99.90;;;;;;5016524;28;20030;-83
2022/09/19 03:31:14;;;;;;;17.63;14.43;;;14.20;99.90;;;;;;5023470;28;20341;-83
2022/09/19 03:33:40;;;;;;;18.92;14.70;;;14.30;99.90;;;;;;5033226;28;20026;-83
2022/09/19 03:36:07;;;;;;;15.90;14.15;;;14.40;99.90;;;;;;5012795;28;20018;-84
2022/09/19 03:38:44;;;;;;;13.93;11.95;;;14.50;99.90;;;;;;5018878;28;20022;-83
2022/09/19 03:41:11;;;;;;;13.20;11.63;;;14.60;99.90;;;;;;5003933;28;20395;-83
2022/09/19 03:43:37;;;;;;;14.73;11.70;;;14.60;99.90;;;;;;4995931;28;20049;-82
2022/09/19 03:46:03;;;;;;;12.73;10.93;;;14.50;99.90;;;;;;4994794;28;20034;-84
2022/09/19 03:48:32;;;;;;;12.82;9.55;;;14.60;99.90;;;;;;5013904;28;20034;-82
2022/09/19 03:51:00;;;;;;;12.32;10.35;;;14.60;99.90;;;;;;5012708;28;20092;-82
2022/09/19 03:53:27;;;;;;;11.38;8.50;;;14.60;99.90;;;;;;5012626;28;20030;-83
2022/09/19 03:55:55;;;;;;;9.35;7.80;;;14.70;99.90;;;;;;5012433;28;20029;-84
2022/09/19 03:58:21;;;;;;;9.13;6.43;;;14.70;99.90;;;;;;4995008;28;20033;-83
2022/09/19 04:00:46;;;;;;;6.93;6.20;;;14.60;99.90;;;;;;5012912;28;20053;-83
2022/09/19 04:03:13;;;;;;;6.22;4.60;;;14.70;99.90;;;;;;5012959;28;20057;-85
2022/09/19 04:05:38;;;;;;;7.75;3.63;;;14.70;99.90;;;;;;4994805;28;20479;-85
2022/09/19 04:08:04;;;;;;;6.38;3.88;;;14.70;99.90;;;;;;4997799;28;20053;-85
2022/09/19 04:10:32;;;;;;;4.93;3.28;;;14.60;99.90;;;;;;5026187;28;20025;-84
2022/09/19 04:12:59;;;;;;;3.17;2.60;;;14.60;99.90;;;;;;4997130;28;20105;-83
2022/09/19 04:15:25;;;;;;;9.45;3.55;;;14.60;99.90;;;;;;5025747;28;20450;-84
2022/09/19 04:17:51;;;;;;;5.47;2.38;;;14.60;99.90;;;;;;5020671;28;20171;-85
2022/09/19 04:20:17;;;;;;;4.47;2.55;;;14.50;99.90;;;;;;5023918;28;20431;-84
2022/09/19 04:22:43;;;;;;;6.85;2.45;;;14.50;99.90;;;;;;5015349;28;20411;-84
2022/09/19 04:25:10;;;;;;;4.13;2.40;;;14.50;99.90;;;;;;5017378;28;20018;-83
2022/09/19 04:27:37;;;;;;;2.33;1.60;;;14.40;99.90;;;;;;5017150;28;20025;-82
2022/09/19 04:30:04;;;;;;;4.50;1.77;;;14.30;99.90;;;;;;5017056;28;20120;-85
2022/09/19 04:32:30;;;;;;;4.20;1.83;;;14.20;99.90;;;;;;5016825;28;20022;-86
2022/09/19 04:34:59;;;;;;;2.17;1.65;;;14.20;99.70;;;;;;4999933;28;20314;-83
2022/09/19 04:37:25;;;;;;;3.03;1.10;;;14.20;99.40;;;;;;4999763;28;20029;-84
2022/09/19 04:39:51;;;;;;;4.07;1.60;;;14.20;97.50;;;;;;5021748;28;20025;-82
2022/09/19 04:42:18;;;;;;;3.05;1.60;;;14.10;97.30;;;;;;5012805;28;20350;-84
2022/09/19 04:44:44;;;;;;;3.38;1.40;;;14.20;96.60;;;;;;5025965;28;20069;-84
2022/09/19 04:47:10;;;;;;;1.63;1.35;;;14.10;96.70;;;;;;5019187;28;20026;-84
2022/09/19 04:49:39;;;;;;;3.63;1.30;;;14.20;96.20;;;;;;5022609;28;20060;-83
2022/09/19 04:52:13;;;;;;;2.45;1.60;;;14.20;95.50;;;;;;4999299;28;20053;-85
2022/09/19 04:54:39;;;;;;;4.70;1.60;;;14.30;95.00;;;;;;5013240;28;20057;-83
2022/09/19 04:57:06;;;;;;;4.90;1.40;;;14.30;95.00;;;;;;5031358;28;20025;-84
2022/09/19 04:59:34;;;;;;;3.95;1.25;;;14.40;94.40;;;;;;5029827;28;20022;-84
2022/09/19 05:02:01;;;;;;;1.98;1.30;;;14.30;93.90;;;;;;5025139;28;20025;-83
2022/09/19 05:04:27;;;;;;;4.40;1.40;;;14.30;93.80;;;;;;5018666;28;20431;-83
2022/09/19 05:06:53;;;;;;;4.22;1.40;;;14.10;93.20;;;;;;5029803;28;20097;-86
2022/09/19 05:09:22;;;;;;;3.05;1.00;;;14.10;93.20;;;;;;5020501;28;20033;-85
2022/09/19 05:11:53;;;;;;;1.75;0.90;;;14.10;93.30;;;;;;5015645;28;20051;-84
2022/09/19 05:14:19;;;;;;;1.83;1.25;;;14.00;92.60;;;;;;4998487;28;20467;-85
2022/09/19 05:16:47;;;;;;;4.70;1.70;;;13.80;92.90;;;;;;5015773;28;20034;-84
2022/09/19 05:19:13;;;;;;;1.58;1.48;;;13.70;93.30;;;;;;5015444;28;20152;-83
2022/09/19 05:21:39;;;;;;;5.43;0.93;;;13.60;93.40;;;;;;4997928;28;20598;-84
2022/09/19 05:24:05;;;;;;;3.42;1.17;;;13.50;93.60;;;;;;5017047;28;20032;-83
2022/09/19 05:26:31;;;;;;;3.42;1.25;;;13.40;94.00;;;;;;5023952;28;20026;-83
2022/09/19 05:28:56;;;;;;;1.05;0.90;;;13.30;94.30;;;;;;5024882;28;20034;-83
2022/09/19 05:31:23;;;;;;;5.97;1.13;;;13.40;94.90;;;;;;4997982;28;20029;-87
2022/09/19 05:33:49;;;;;;;1.73;0.82;;;13.40;93.60;;;;;;4997746;28;20758;-82
2022/09/19 05:36:15;;;;;;;3.15;0.90;;;13.30;94.00;;;;;;5015892;28;20049;-85
2022/09/19 05:38:42;;;;;;;2.72;0.80;;;13.30;94.10;;;;;;5015926;28;20038;-84
2022/09/19 05:41:08;;;;;;;2.72;1.67;;;13.20;94.20;;;;;;5016448;28;20065;-86
2022/09/19 05:43:33;;;;;;;3.33;0.90;;;13.20;94.10;;;;;;5016884;28;20455;-87
2022/09/19 05:46:00;;;;;;;4.00;1.08;;;13.20;94.00;;;;;;5016500;28;20505;-83
2022/09/19 05:48:26;;;;;;;1.30;0.80;;;13.10;94.30;;;;;;5016103;28;20045;-85
2022/09/19 05:50:53;;;;;;;1.30;0.88;;;13.10;94.10;;;;;;4997779;28;20058;-85
2022/09/19 05:56:05;;;;;;;3.53;0.98;;;13.10;94.50;;;;;;5016017;28;20041;-82
2022/09/19 05:58:33;;;;;;;4.43;1.63;;;13.10;94.50;;;;;;5002384;28;20057;-81
2022/09/19 06:01:03;;;;;;;1.35;1.17;;;13.10;94.40;;;;;;5018836;28;20247;-82
2022/09/19 06:03:29;;;;;;;2.85;0.90;;;13.20;94.60;;;;;;5015322;28;20042;-82
2022/09/19 06:05:57;;;;;;;5.43;1.30;;;13.20;94.50;;;;;;5015079;28;20151;-83
2022/09/19 06:08:24;;;;;;;0.93;0.80;;;13.00;94.80;;;;;;4996903;28;20045;-83
2022/09/19 06:10:50;;;;;;;1.70;1.00;;;12.90;94.90;;;;;;5015135;28;20061;-84
2022/09/19 06:13:21;;;;;;;2.40;1.08;;;13.00;95.10;;;;;;4999474;28;20034;-83
2022/09/19 06:15:48;;;;;;;2.90;1.08;;;13.20;94.60;;;;;;5021535;28;20077;-82
2022/09/19 06:18:13;;;;;;;2.15;0.90;;;13.20;94.30;;;;;;5022040;28;20018;-82
2022/09/19 06:20:41;;;;;;;1.55;0.85;;;13.10;94.20;;;;;;5004413;28;20141;-82
2022/09/19 06:23:09;;;;;;;2.25;0.50;;;13.00;94.90;;;;;;5021962;28;20485;-84
2022/09/19 06:25:36;;;;;;;4.00;1.70;;;12.90;95.10;;;;;;5022180;28;20030;-83
2022/09/19 06:28:05;;;;;;;2.30;1.00;;;12.50;96.50;;;;;;5005171;28;20072;-84
2022/09/19 06:30:32;;;;;;;2.15;1.13;;;12.20;97.20;;;;;;5004792;28;20030;-83
2022/09/19 06:33:00;;;;;;;3.37;0.83;;;12.20;97.60;;;;;;5003852;28;20035;-83
2022/09/19 06:35:31;;;;;;;4.82;1.50;;;12.30;96.80;;;;;;4988280;28;20280;-84
2022/09/19 06:38:04;;;;;;;5.28;1.10;;;12.50;95.90;;;;;;5005401;28;20033;-85
2022/09/19 06:40:43;;;;;;;0.95;0.60;;;12.70;95.40;;;;;;5015219;28;20034;-86
2022/09/19 06:43:09;;;;;;;2.17;1.27;;;12.80;94.10;;;;;;5025287;28;20037;-84
2022/09/19 06:45:40;;;;;;;4.45;1.00;;;12.70;93.90;;;;;;4987001;28;20030;-83
2022/09/19 06:48:15;;;;;;;2.10;0.98;;;12.70;94.00;;;;;;5025410;28;20029;-84
2022/09/19 06:50:46;;;;;;;5.72;1.38;;;12.60;94.00;;;;;;5005241;28;20033;-83
2022/09/19 06:53:13;;;;;;;2.85;0.80;;;12.60;94.60;;;;;;5004926;28;20036;-85
2022/09/19 06:55:40;;;;;;;4.10;1.60;;;12.50;94.70;;;;;;5006458;28;20033;-83
2022/09/19 06:58:10;;;;;;;7.10;1.40;;;12.50;94.50;;;;;;5006969;28;20022;-86
2022/09/19 07:00:38;;;;;;;3.65;0.90;;;12.70;95.00;;;;;;5020053;28;20073;-83
2022/09/19 07:03:12;;;;;;;7.40;1.88;;;12.80;94.20;;;;;;5000999;28;20105;-85
2022/09/19 07:05:42;;;;;;;9.13;1.73;;;12.80;93.10;;;;;;5022987;28;20045;-85
2022/09/19 07:08:10;;;;;;;1.35;0.85;;;12.70;92.90;;;;;;4999689;28;20060;-84
2022/09/19 07:10:36;;;;;;;3.42;1.05;;;12.80;93.00;;;;;;5005031;28;20018;-83
2022/09/19 07:13:04;;;;;;;1.52;0.63;;;13.00;92.30;;;;;;5024398;28;20085;-83
2022/09/19 07:15:34;;;;;;;;;;;13.30;91.60;;;;;;5031806;28;22944;-85
2022/09/19 07:18:00;;;;;;;7.20;0.90;;;13.40;90.50;;;;;;5023403;28;19912;-84
2022/09/19 07:20:28;;;;;;;5.30;0.80;;;13.60;88.20;;;;;;5006138;28;20057;-85
2022/09/19 07:22:59;;;;;;;5.38;1.02;;;13.80;87.90;;;;;;5011715;28;20064;-85
2022/09/19 07:25:26;;;;;;;3.33;1.33;;;13.70;86.60;;;;;;5026191;28;20026;-84
2022/09/19 07:27:58;;;;;;;2.42;0.70;;;13.50;87.50;;;;;;5012134;28;20029;-82
2022/09/19 07:30:33;;;;;;;9.35;0.88;;;13.20;89.00;;;;;;5008897;28;20025;-85
2022/09/19 07:33:00;;;;;;;4.45;1.05;;;13.00;89.80;;;;;;4987594;28;20049;-85
2022/09/19 07:35:30;;;;;;;2.05;0.90;;;12.80;90.50;;;;;;5002439;28;20094;-83
2022/09/19 07:37:56;;;;;;;3.70;0.40;;;12.70;90.70;;;;;;5003004;28;20483;-85
2022/09/19 07:40:23;;;;;;;4.80;0.70;;;12.50;91.90;;;;;;5020644;28;20033;-85
2022/09/19 07:42:50;;;;;;;4.82;1.20;;;11.80;94.50;;;;;;5003919;28;20610;-85
2022/09/19 07:45:17;;;;;;;2.78;0.75;;;11.30;96.20;;;;;;5012969;28;20036;-85
2022/09/19 07:47:45;;;;;;;4.30;0.60;;;10.90;97.90;;;;;;5027178;28;20041;-84
2022/09/19 07:50:17;;;;;;;1.75;1.33;;;10.90;98.60;;;;;;5016976;28;20043;-85
2022/09/19 07:52:47;;;;;;;3.00;0.30;;;10.70;98.40;;;;;;5013183;28;20026;-85
2022/09/19 07:55:14;;;;;;;2.30;0.85;;;10.70;98.30;;;;;;5002405;28;20454;-84
2022/09/19 07:57:51;;;;;;;0.47;0.47;;;10.60;98.30;;;;;;5021043;28;20408;-85
2022/09/19 08:00:17;;;;;;;1.07;0.60;;;10.50;98.20;;;;;;5007552;28;20125;-83
2022/09/19 08:02:43;;;;;;;1.90;0.40;;;10.40;98.00;;;;;;5019229;28;20259;-82
2022/09/19 08:05:09;;;;;;;3.33;0.68;;;10.50;97.40;;;;;;5019881;28;20038;-83
2022/09/19 08:07:35;;;;;;;0.60;0.60;;;10.70;97.00;;;;;;5019321;28;20026;-83
2022/09/19 08:10:02;;;;;;;1.60;0.70;;;10.90;96.40;;;;;;5018509;28;20029;-83
2022/09/19 08:12:30;;;;;;;3.55;0.77;;;11.00;96.20;;;;;;5017969;28;20494;-83
2022/09/19 08:14:56;;;;;;;;;;;11.10;95.60;;;;;;5012489;28;20034;-84
2022/09/19 08:17:22;;;;;;;4.53;0.93;;;11.20;95.50;;;;;;5008746;28;19905;-84
2022/09/19 08:19:50;;;;;;;2.63;1.20;;;11.20;95.10;;;;;;5020729;28;20038;-85
2022/09/19 08:22:16;;;;;;;1.65;0.80;;;11.30;95.20;;;;;;5020075;28;20038;-83
2022/09/19 08:24:42;;;;;;;16.40;1.25;;;11.40;94.50;;;;;;5021498;28;20044;-83
2022/09/19 08:27:08;;;;;;;2.22;0.85;;;11.40;93.90;;;;;;5002194;28;20037;-83
2022/09/19 08:29:37;;;;;;;3.92;1.08;;;11.40;94.00;;;;;;5003149;28;20022;-85
2022/09/19 08:32:03;;;;;;;2.22;0.88;;;11.50;93.70;;;;;;5002596;28;20021;-85
2022/09/19 08:34:29;;;;;;;4.85;0.65;;;11.50;93.60;;;;;;5020323;28;20092;-84
2022/09/19 08:36:59;;;;;;;4.60;1.23;;;11.50;93.40;;;;;;5020701;28;20032;-85
2022/09/19 08:39:25;;;;;;;0.75;0.57;;;11.60;93.40;;;;;;5019866;28;20026;-83
2022/09/19 08:42:03;;;;;;;2.20;0.68;;;11.90;92.80;;;;;;5003506;28;20022;-84
2022/09/19 08:44:41;;;;;;;1.65;1.08;;;11.90;93.00;;;;;;5002976;28;20018;-83
2022/09/19 08:47:18;;;;;;;2.50;1.30;;;11.90;92.60;;;;;;5001799;28;20112;-85
2022/09/19 08:49:56;;;;;;;9.07;2.17;;;11.90;92.30;;;;;;5003953;28;20026;-84
2022/09/19 08:52:36;;;;;;;4.10;2.00;;;11.90;92.40;;;;;;5002512;28;20026;-84
2022/09/19 08:55:07;;;;;;;1.83;0.85;;;12.00;92.30;;;;;;5018554;28;20028;-84
2022/09/19 08:57:37;;;;;;;0.25;0.25;;;12.00;91.70;;;;;;5003235;28;20086;-84
2022/09/19 09:00:16;;;;;;;2.10;0.80;;;11.90;91.10;;;;;;5002581;28;20372;-84
2022/09/19 09:02:56;;;;;;;2.38;0.73;;;12.00;91.80;;;;;;5029280;28;20077;-84
2022/09/19 09:05:45;;;;;;;5.93;1.55;;;12.10;90.90;;;;;;5005943;28;20026;-85
2022/09/19 09:08:22;;;;;;;6.57;1.55;;;12.00;91.30;;;;;;5024000;28;20040;-83
2022/09/19 09:11:14;;;;;;;2.60;0.70;;;12.10;91.20;;;;;;5005956;28;20471;-84
2022/09/19 09:14:19;;;;;;;1.88;1.05;;;12.10;91.20;;;;;;5018436;28;20042;-85
2022/09/19 09:16:45;;;;;;;1.60;0.93;;;12.10;91.50;;;;;;5023837;28;20033;-84
2022/09/19 09:19:46;;;;;;;3.22;1.10;;;12.20;91.70;;;;;;5025928;28;20018;-84
2022/09/19 09:22:40;;;;;;;6.85;1.55;;;12.30;91.60;;;;;;5024018;28;20065;-84
2022/09/19 09:25:29;;;;;;;4.10;1.60;;;12.20;91.70;;;;;;5002628;28;20483;-83
2022/09/19 09:28:30;;;;;;;2.72;1.10;;;11.90;93.10;;;;;;5023330;28;20037;-85
2022/09/19 09:31:25;;;;;;;3.22;1.10;;;11.60;94.50;;;;;;5022582;28;20021;-84
2022/09/19 09:33:59;;;;;;;5.03;0.93;;;11.30;95.90;;;;;;5023870;28;20032;-84
2022/09/19 09:36:31;;;;;;;1.38;0.45;;;11.00;97.30;;;;;;5022284;28;20022;-85
2022/09/19 09:39:13;;;;;;;3.55;1.00;;;10.80;97.90;;;;;;5023449;28;20048;-84
2022/09/19 09:41:50;;;;;;;4.80;0.63;;;10.90;97.20;;;;;;5006576;28;20048;-84
2022/09/19 09:44:23;;;;;;;;;;;11.00;97.00;;;;;;5028608;28;20063;-83
2022/09/19 09:46:55;;;;;;;3.75;0.82;;;11.20;96.60;;;;;;5015675;28;19913;-85
2022/09/19 09:49:22;;;;;;;5.78;1.40;;;11.30;96.30;;;;;;5023892;28;20068;-83
2022/09/19 09:52:00;;;;;;;1.83;0.95;;;11.40;96.00;;;;;;5021977;28;20081;-85
2022/09/19 09:57:57;;;;;;;1.67;0.90;;;11.70;94.90;;;;;;5023187;28;20036;-84
2022/09/19 10:03:34;;;;;;;2.45;0.90;;;11.60;94.70;;;;;;5024363;28;20037;-84
2022/09/19 10:06:09;;;;;;;5.00;0.75;;;11.50;95.20;;;;;;5027229;28;20036;-83
2022/09/19 10:08:59;;;;;;;2.03;1.00;;;11.40;95.70;;;;;;5002947;28;20087;-83
2022/09/19 10:11:45;;;;;;;1.67;0.70;;;11.20;96.20;;;;;;5029280;28;20041;-85
2022/09/19 10:14:28;;;;;;;3.15;0.80;;;10.80;97.90;;;;;;5016905;28;20029;-83
2022/09/19 10:17:00;;;;;;;2.95;1.48;;;10.20;99.90;;;;;;5012928;28;20030;-83
2022/09/19 10:19:47;;;;;;;1.88;0.60;;;9.90;99.90;;;;;;5022594;28;20039;-84
2022/09/19 10:22:15;;;;;;;3.28;1.00;;;9.70;99.90;;;;;;5001667;28;20023;-83
2022/09/19 10:24:50;;;;;;;2.58;1.10;;;9.70;99.90;;;;;;4974868;28;20069;-84
2022/09/19 10:27:25;;;;;;;0.88;0.60;;;9.60;99.90;;;;;;5001029;28;20019;-84
2022/09/19 10:29:59;;;;;;;1.95;0.93;;;9.70;99.90;;;;;;4994299;28;20023;-83
2022/09/19 10:32:39;;;;;;;0.90;0.73;;;9.70;99.90;;;;;;5006630;28;20022;-83
2022/09/19 10:35:37;;;;;;;2.25;1.10;;;9.70;99.90;;;;;;4975585;28;20488;-84
2022/09/19 10:38:13;;;;;;;0.88;0.80;;;9.80;99.90;;;;;;4989248;28;20042;-85
2022/09/19 10:40:58;;;;;;;1.75;1.30;;;9.90;99.90;;;;;;4992686;28;20023;-85
2022/09/19 10:43:45;;;;;;;1.55;0.75;;;10.10;99.90;;;;;;4986777;28;20074;-85
2022/09/19 10:46:31;;;;;;;4.05;1.10;;;10.10;99.90;;;;;;5001580;28;20041;-85
2022/09/19 10:48:58;;;;;;;0.93;0.77;;;10.00;99.90;;;;;;5004211;28;20046;-86
2022/09/19 10:51:41;;;;;;;1.13;1.00;;;9.90;99.90;;;;;;4994180;28;20578;-85
2022/09/19 10:54:21;;;;;;;2.53;0.70;;;9.70;99.90;;;;;;5003376;28;20093;-87
2022/09/19 10:56:47;;;;;;;1.23;0.90;;;9.60;99.90;;;;;;5000427;28;20018;-85
2022/09/19 10:59:13;;;;;;;1.13;0.75;;;9.50;99.90;;;;;;4992587;28;20030;-84
2022/09/19 11:01:40;;;;;;;1.35;1.10;;;9.50;99.90;;;;;;4998593;28;20027;-84
2022/09/19 11:04:23;;;;;;;1.25;1.15;;;9.50;99.90;;;;;;5001778;28;20105;-85
2022/09/19 11:07:16;;;;;;;1.17;0.88;;;9.50;99.90;;;;;;5002659;28;20018;-84
2022/09/19 11:09:44;;;;;;;1.95;1.48;;;9.50;99.90;;;;;;4986091;28;20487;-85
2022/09/19 11:12:16;;;;;;;1.40;0.98;;;9.50;99.90;;;;;;4988780;28;20042;-85
2022/09/19 11:14:55;;;;;;;3.63;1.17;;;9.60;99.90;;;;;;4989398;28;20061;-84
2022/09/19 11:17:55;;;;;;;3.22;1.25;;;9.60;99.90;;;;;;5002729;28;20022;-84
2022/09/19 11:20:33;;;;;;;5.35;1.48;;;9.70;99.90;;;;;;5014821;28;20045;-84
2022/09/19 11:23:28;;;;;;;7.68;1.83;;;9.60;99.90;;;;;;5032331;28;20025;-85
2022/09/19 11:26:03;;;;;;;3.58;1.38;;;9.70;99.90;;;;;;5009344;28;20045;-86
2022/09/19 11:28:44;;;;;;;2.00;1.45;;;9.60;99.90;;;;;;5020742;28;20036;-85
2022/09/19 11:31:28;;;;;;;4.90;1.13;;;9.50;99.90;;;;;;5002186;28;20025;-83
2022/09/19 11:34:41;;;;;;;3.10;1.63;;;9.50;99.90;;;;;;5003180;28;20036;-87
2022/09/19 11:37:38;;;;;;;4.03;1.77;;;9.50;99.90;;;;;;4984454;28;20045;-83
2022/09/19 11:40:26;;;;;;;3.30;1.05;;;9.60;99.90;;;;;;5008599;28;20017;-85
2022/09/19 11:43:09;;;;;;;4.45;1.50;;;9.50;99.90;;;;;;5020915;28;20056;-84
2022/09/19 11:45:50;;;;;;;3.08;1.67;;;9.50;99.90;;;;;;5005337;28;20030;-83
2022/09/19 11:48:47;;;;;;;1.85;1.35;;;9.50;99.90;;;;;;5002124;28;20088;-87
2022/09/19 11:51:16;;;;;;;2.83;1.13;;;9.60;99.90;;;;;;5019463;28;20037;-86
2022/09/19 11:54:27;;;;;;;1.45;0.90;;;9.60;99.90;;;;;;5020207;28;20098;-85
2022/09/19 11:57:08;;;;;;;2.38;1.15;;;9.60;99.90;;;;;;5002427;28;20022;-85
2022/09/19 12:00:13;;;;;;;1.60;0.93;;;9.60;99.90;;;;;;5021929;28;20045;-86
2022/09/19 12:03:12;;;;;;;2.05;0.90;;;9.60;99.90;;;;;;4983718;28;20030;-85
2022/09/19 12:06:04;;;;;;;1.63;1.25;;;9.50;99.90;;;;;;4960067;29;20043;-86
2022/09/19 12:08:45;;;;;;;0.93;0.57;;;9.50;99.90;;;;;;4899884;29;20044;-85
2022/09/19 12:11:14;;;;;;;2.58;1.17;;;9.60;99.90;;;;;;4901708;29;20036;-85
2022/09/19 12:13:59;;;;;;;4.93;0.95;;;9.60;99.90;;;;;;4901726;29;20041;-86
2022/09/19 12:16:43;;;;;;;0.88;0.73;;;9.70;99.90;;;;;;4901644;29;20418;-85
2022/09/19 12:19:33;;;;;;;1.27;0.60;;;9.70;99.90;;;;;;4902630;29;20088;-85
2022/09/19 12:22:14;;;;;;;0.70;0.60;;;9.70;99.90;;;;;;4902836;29;20045;-85
2022/09/19 12:24:54;;;;;;;1.88;1.17;;;9.70;99.90;;;;;;4901303;29;20439;-85
2022/09/19 12:27:32;;;;;;;2.90;1.10;;;9.60;99.90;;;;;;4889254;29;20064;-85
2022/09/19 12:30:14;;;;;;;1.02;0.70;;;9.70;99.90;;;;;;4904657;29;20050;-83
2022/09/19 12:33:06;;;;;;;2.65;1.50;;;9.70;99.90;;;;;;4909387;29;20040;-85
2022/09/19 12:35:46;;;;;;;0.98;0.70;;;9.70;99.90;;;;;;4903987;29;20037;-85
2022/09/19 12:38:44;;;;;;;2.35;1.73;;;9.60;99.90;;;;;;4906303;29;20139;-87
2022/09/19 12:41:20;;;;;;;2.65;0.93;;;9.60;99.90;;;;;;4927776;29;20127;-85
2022/09/19 12:44:06;;;;;;;3.72;1.55;;;9.70;99.90;;;;;;4938702;29;20024;-86
2022/09/19 12:47:04;;;;;;;2.47;0.75;;;9.70;99.90;;;;;;5019648;28;20038;-86
2022/09/19 12:49:42;;;;;;;2.35;0.93;;;9.70;99.90;;;;;;5008005;28;20537;-85
2022/09/19 12:52:08;;;;;;;1.25;0.90;;;9.60;99.90;;;;;;5008259;28;20053;-86
2022/09/19 12:54:39;;;;;;;2.53;0.63;;;9.70;99.90;;;;;;5008530;28;20026;-86
2022/09/19 12:57:24;;;;;;;1.00;0.60;;;9.80;99.90;;;;;;5037355;28;20022;-86
2022/09/19 12:59:54;;;;;;;1.67;1.05;;;9.80;99.90;;;;;;5012457;28;20069;-86
2022/09/19 13:02:28;;;;;;;4.30;0.85;;;9.70;99.90;;;;;;5035075;28;20392;-86
2022/09/19 13:05:18;;;;;;;2.00;0.40;;;9.70;99.90;;;;;;5029201;28;20104;-85
2022/09/19 13:07:52;;;;;;;2.47;0.68;;;9.70;99.90;;;;;;5022289;28;20029;-86
2022/09/19 13:10:49;;;;;;;1.73;0.90;;;9.70;99.90;;;;;;5007364;28;20018;-85
2022/09/19 13:13:24;;;;;;;0.82;0.45;;;9.70;99.90;;;;;;5022814;28;20022;-86
2022/09/19 13:16:11;;;;;;;2.78;0.75;;;9.70;99.90;;;;;;5006295;28;20022;-86
2022/09/19 13:24:41;;;;;;;1.08;0.70;;;9.50;99.90;;;;;;5010623;28;20115;-87
2022/09/19 13:27:09;;;;;;;1.58;0.88;;;9.50;99.90;;;;;;5019001;28;20057;-86
2022/09/19 13:29:35;;;;;;;3.13;1.00;;;9.50;99.90;;;;;;5007022;28;20125;-84
2022/09/19 13:32:26;;;;;;;3.08;1.58;;;9.50;99.90;;;;;;5026442;28;20026;-88
2022/09/19 13:35:08;;;;;;;2.22;0.95;;;9.50;99.90;;;;;;5007903;28;20029;-86
2022/09/19 13:37:34;;;;;;;3.28;1.55;;;9.50;99.90;;;;;;5024861;28;20053;-86